createdAt,value
2023-01-15T00:01:02.693Z,95766.56
2023-01-15T00:03:31.413Z,95680.81
2023-01-15T00:06:03.506Z,95747.19
2023-01-15T00:08:31.482Z,95766.25
2023-01-15T00:10:59.385Z,95761.75
2023-01-15T00:13:29.049Z,95753.84
2023-01-15T00:16:04.128Z,95756.44
2023-01-15T00:18:32.295Z,95760.41
2023-01-15T00:21:01.141Z,95766.31
2023-01-15T00:23:48.932Z,95757.75
2023-01-15T00:26:35.358Z,95768.13
2023-01-15T00:29:03.608Z,95722.75
2023-01-15T00:31:33.976Z,95769.72
2023-01-15T00:34:02.044Z,95739.97
2023-01-15T00:36:30.784Z,95707.25
2023-01-15T00:38:58.767Z,95764.09
2023-01-15T00:41:26.767Z,95734.34
2023-01-15T00:43:55.475Z,95755.53
2023-01-15T00:46:24.493Z,95762.78
2023-01-15T00:48:53.946Z,95756.34
2023-01-15T00:51:21.872Z,95753.88
2023-01-15T00:53:49.862Z,95739.00
2023-01-15T00:56:17.798Z,95733.66
2023-01-15T00:58:46.783Z,95744.06
2023-01-15T01:01:15.179Z,95724.72
2023-01-15T01:03:43.222Z,95758.72
2023-01-15T01:06:12.500Z,95755.03
2023-01-15T01:08:40.368Z,95751.84
2023-01-15T01:11:11.188Z,95686.03
2023-01-15T01:13:39.992Z,95748.63
2023-01-15T01:16:24.187Z,95718.78
2023-01-15T01:18:52.508Z,95739.72
2023-01-15T01:21:22.298Z,95746.28
2023-01-15T01:23:50.563Z,95719.25
2023-01-15T01:26:19.395Z,95754.31
2023-01-15T01:28:51.397Z,95750.53
2023-01-15T01:31:20.073Z,95732.19
2023-01-15T01:33:50.031Z,95714.59
2023-01-15T01:36:19.031Z,95737.47
2023-01-15T01:38:50.808Z,95740.16
2023-01-15T01:41:19.060Z,95743.88
2023-01-15T01:43:59.572Z,95750.28
2023-01-15T01:46:29.839Z,95744.44
2023-01-15T01:49:01.238Z,95746.25
2023-01-15T01:51:36.003Z,95712.09
2023-01-15T01:54:06.007Z,95705.69
2023-01-15T01:56:37.086Z,95736.41
2023-01-15T01:59:07.194Z,95732.19
2023-01-15T02:01:35.309Z,95739.72
2023-01-15T02:04:04.296Z,95693.53
2023-01-15T02:06:33.273Z,95734.38
2023-01-15T02:09:01.302Z,95731.13
2023-01-15T02:11:31.755Z,95733.28
2023-01-15T02:14:05.614Z,95718.41
2023-01-15T02:16:40.058Z,95734.34
2023-01-15T02:19:21.627Z,95706.91
2023-01-15T02:21:54.388Z,95732.91
2023-01-15T02:24:32.964Z,95725.94
2023-01-15T02:27:10.917Z,95733.38
2023-01-15T02:29:51.162Z,95715.41
2023-01-15T02:32:28.059Z,95730.28
2023-01-15T02:35:00.673Z,95729.50
2023-01-15T02:37:31.805Z,95709.81
2023-01-15T02:40:03.345Z,95721.50
2023-01-15T02:42:34.729Z,95680.56
2023-01-15T02:45:07.319Z,95717.69
2023-01-15T02:47:39.073Z,95720.31
2023-01-15T02:50:12.293Z,95709.88
2023-01-15T02:52:45.367Z,95696.00
2023-01-15T02:55:17.394Z,95717.50
2023-01-15T02:57:49.904Z,95724.06
2023-01-15T03:00:20.596Z,95728.06
2023-01-15T03:02:54.993Z,95724.06
2023-01-15T03:05:26.704Z,95667.06
2023-01-15T03:07:57.847Z,95732.63
2023-01-15T03:10:36.363Z,95704.75
2023-01-15T03:13:07.391Z,95725.66
2023-01-15T03:16:07.896Z,95727.72
2023-01-15T03:18:42.323Z,95721.13
2023-01-15T03:21:13.026Z,95730.94
2023-01-15T03:23:47.198Z,95725.66
2023-01-15T03:26:15.124Z,95728.66
2023-01-15T03:28:46.091Z,95734.25
2023-01-15T03:31:14.098Z,95729.50
2023-01-15T03:33:43.203Z,95727.34
2023-01-15T03:36:11.329Z,95722.56
2023-01-15T03:38:41.284Z,95675.13
2023-01-15T03:41:16.915Z,95726.88
2023-01-15T03:43:56.768Z,95732.22
2023-01-15T03:46:41.046Z,95716.84
2023-01-15T03:49:20.197Z,95735.44
2023-01-15T03:51:54.784Z,95692.97
2023-01-15T03:54:28.159Z,95740.22
2023-01-15T03:57:05.184Z,95695.91
2023-01-15T03:59:40.482Z,95722.69
2023-01-15T04:02:11.222Z,95729.00
2023-01-15T04:04:40.973Z,95731.09
2023-01-15T04:07:08.956Z,95729.72
2023-01-15T04:09:40.257Z,95729.22
2023-01-15T04:12:09.025Z,95666.00
2023-01-15T04:14:38.227Z,95651.34
2023-01-15T04:17:06.207Z,95712.25
2023-01-15T04:19:34.372Z,95716.34
2023-01-15T04:22:02.343Z,95720.41
2023-01-15T04:24:30.266Z,95725.19
2023-01-15T04:26:58.322Z,95708.66
2023-01-15T04:29:26.404Z,95726.69
2023-01-15T04:31:57.956Z,95704.28
2023-01-15T04:34:26.899Z,95722.97
2023-01-15T04:36:55.090Z,95727.56
2023-01-15T04:39:23.178Z,95729.38
2023-01-15T04:42:08.273Z,95728.69
2023-01-15T04:44:37.650Z,95735.06
2023-01-15T04:47:07.826Z,95732.81
2023-01-15T04:49:36.173Z,95719.41
2023-01-15T04:52:04.977Z,95725.19
2023-01-15T04:54:33.280Z,95682.84
2023-01-15T04:57:01.354Z,95735.88
2023-01-15T04:59:29.288Z,95695.47
2023-01-15T05:02:05.045Z,95746.00
2023-01-15T05:04:36.252Z,95740.81
2023-01-15T05:07:05.747Z,95703.38
2023-01-15T05:09:33.952Z,95735.63
2023-01-15T05:12:01.996Z,95737.38
2023-01-15T05:14:29.982Z,95746.50
2023-01-15T05:16:57.933Z,95720.13
2023-01-15T05:19:25.936Z,95740.25
2023-01-15T05:21:55.316Z,95740.59
2023-01-15T05:24:23.355Z,95737.16
2023-01-15T05:26:51.336Z,95720.44
2023-01-15T05:29:19.332Z,95736.06
2023-01-15T05:31:47.825Z,95691.66
2023-01-15T05:34:34.214Z,95735.19
2023-01-15T05:37:03.577Z,95741.03
2023-01-15T05:39:31.490Z,95729.81
2023-01-15T05:41:59.451Z,95733.97
2023-01-15T05:44:29.154Z,95738.25
2023-01-15T05:46:59.176Z,95688.19
2023-01-15T05:49:30.153Z,95744.34
2023-01-15T05:51:58.502Z,95655.16
2023-01-15T05:54:29.617Z,95744.53
2023-01-15T05:56:58.101Z,95745.56
2023-01-15T05:59:27.988Z,95652.00
2023-01-15T06:01:57.024Z,95748.28
2023-01-15T06:04:25.587Z,95746.94
2023-01-15T06:06:55.618Z,95742.69
2023-01-15T06:09:24.459Z,95733.41
2023-01-15T06:11:54.221Z,95740.78
2023-01-15T06:14:22.553Z,95736.25
2023-01-15T06:16:50.458Z,95729.81
2023-01-15T06:19:18.435Z,95743.06
2023-01-15T06:21:46.439Z,95738.19
2023-01-15T06:24:16.593Z,95657.47
2023-01-15T06:26:44.662Z,95741.81
2023-01-15T06:29:18.644Z,95714.69
2023-01-15T06:31:46.782Z,95738.84
2023-01-15T06:34:14.714Z,95739.94
2023-01-15T06:36:42.896Z,95741.66
2023-01-15T06:39:10.946Z,95742.47
2023-01-15T06:41:56.843Z,95744.50
2023-01-15T06:44:43.557Z,95741.50
2023-01-15T06:47:24.956Z,95746.59
2023-01-15T06:49:55.558Z,95739.66
2023-01-15T06:52:24.415Z,95738.59
2023-01-15T06:54:52.955Z,95736.94
2023-01-15T06:57:21.527Z,95741.25
2023-01-15T06:59:52.126Z,95749.84
2023-01-15T07:02:21.821Z,95744.50
2023-01-15T07:04:52.193Z,95745.09
2023-01-15T07:07:21.713Z,95747.47
2023-01-15T07:09:50.175Z,95743.53
2023-01-15T07:12:19.517Z,95750.94
2023-01-15T07:14:48.095Z,95725.34
2023-01-15T07:17:18.741Z,95712.66
2023-01-15T07:19:47.644Z,95743.06
2023-01-15T07:22:15.697Z,95744.38
2023-01-15T07:24:43.723Z,95746.97
2023-01-15T07:27:11.628Z,95750.09
2023-01-15T07:29:39.571Z,95776.41
2023-01-15T07:32:07.781Z,95762.09
2023-01-15T07:34:37.175Z,95759.91
2023-01-15T07:37:05.259Z,95757.94
2023-01-15T07:39:33.311Z,95758.97
2023-01-15T07:42:19.149Z,95761.22
2023-01-15T07:45:05.187Z,95761.22
2023-01-15T07:47:51.170Z,95756.53
2023-01-15T07:50:23.418Z,95758.91
2023-01-15T07:52:53.467Z,95674.31
2023-01-15T07:55:22.240Z,95732.38
2023-01-15T07:57:50.461Z,95746.06
2023-01-15T08:00:22.555Z,95723.78
2023-01-15T08:02:51.008Z,95744.22
2023-01-15T08:05:20.603Z,95728.75
2023-01-15T08:07:49.400Z,95738.03
2023-01-15T08:10:17.921Z,95743.25
2023-01-15T08:13:03.219Z,95750.16
2023-01-15T08:15:36.136Z,95742.31
2023-01-15T08:18:05.101Z,95753.25
2023-01-15T08:20:36.450Z,95753.50
2023-01-15T08:23:04.486Z,95739.75
2023-01-15T08:25:32.574Z,95757.06
2023-01-15T08:28:02.379Z,95745.53
2023-01-15T08:30:30.417Z,95760.44
2023-01-15T08:33:02.488Z,95757.91
2023-01-15T08:35:30.424Z,95772.84
2023-01-15T08:38:00.148Z,95771.47
2023-01-15T08:40:28.241Z,95769.97
2023-01-15T08:42:56.719Z,95771.28
2023-01-15T08:45:24.747Z,95762.53
2023-01-15T08:47:56.558Z,95738.28
2023-01-15T08:50:24.579Z,95745.59
2023-01-15T08:52:52.698Z,95763.69
2023-01-15T08:55:22.136Z,95765.72
2023-01-15T08:57:51.930Z,95761.50
2023-01-15T09:00:21.805Z,95734.88
2023-01-15T09:02:50.317Z,95761.94
2023-01-15T09:05:18.936Z,95759.34
2023-01-15T09:07:47.097Z,95758.59
2023-01-15T09:10:15.119Z,95733.28
2023-01-15T09:12:44.524Z,95755.81
2023-01-15T09:15:12.625Z,95760.91
2023-01-15T09:17:40.986Z,95752.19
2023-01-15T09:20:11.432Z,95710.91
2023-01-15T09:22:39.536Z,95729.00
2023-01-15T09:25:08.829Z,95746.22
2023-01-15T09:27:38.103Z,95698.41
2023-01-15T09:30:08.934Z,95738.88
2023-01-15T09:32:37.012Z,95736.50
2023-01-15T09:35:05.129Z,95727.88
2023-01-15T09:37:33.243Z,95739.84
2023-01-15T09:40:02.405Z,95722.31
2023-01-15T09:42:41.697Z,95685.25
2023-01-15T09:45:20.378Z,95715.97
2023-01-15T09:48:25.732Z,95706.28
2023-01-15T09:51:03.876Z,95688.03
2023-01-15T09:53:48.366Z,95700.72
2023-01-15T09:56:24.665Z,95697.03
2023-01-15T09:58:54.785Z,95694.91
2023-01-15T10:01:28.187Z,95645.22
2023-01-15T10:04:03.473Z,95666.81
2023-01-15T10:06:35.191Z,95675.28
2023-01-15T10:09:11.801Z,95662.47
2023-01-15T10:12:09.805Z,95654.53
2023-01-15T10:14:47.057Z,95641.75
2023-01-15T10:17:22.734Z,95618.31
2023-01-15T10:19:50.824Z,95647.28
2023-01-15T10:22:30.946Z,95650.66
2023-01-15T10:24:59.864Z,95639.66
2023-01-15T10:27:33.562Z,95643.13
2023-01-15T10:30:07.726Z,95635.75
2023-01-15T10:33:01.062Z,95642.19
2023-01-15T10:35:40.311Z,95639.78
2023-01-15T10:38:17.710Z,95623.88
2023-01-15T10:41:26.113Z,95625.63
2023-01-15T10:44:01.633Z,95617.06
2023-01-15T10:46:33.743Z,95612.06
2023-01-15T10:49:06.893Z,95614.19
2023-01-15T10:51:42.334Z,95533.44
2023-01-15T10:54:18.173Z,95600.53
2023-01-15T10:56:51.367Z,95610.28
2023-01-15T10:59:23.488Z,95586.81
2023-01-15T11:01:54.012Z,95570.53
2023-01-15T11:04:24.786Z,95571.03
2023-01-15T11:06:52.805Z,95574.16
2023-01-15T11:09:24.945Z,95563.22
2023-01-15T11:12:12.281Z,95573.66
2023-01-15T11:14:59.285Z,95555.63
2023-01-15T11:17:48.780Z,95555.00
2023-01-15T11:20:26.542Z,95555.63
2023-01-15T11:22:56.401Z,95559.13
2023-01-15T11:25:33.257Z,95546.13
2023-01-15T11:28:03.680Z,95545.03
2023-01-15T11:30:33.548Z,95525.91
2023-01-15T11:33:06.668Z,95534.53
2023-01-15T11:35:36.175Z,95535.13
2023-01-15T11:38:06.484Z,95533.25
2023-01-15T11:40:34.994Z,95519.72
2023-01-15T11:43:20.821Z,95503.66
2023-01-15T11:46:08.519Z,95482.38
2023-01-15T11:49:03.301Z,95514.50
2023-01-15T11:51:41.567Z,95517.38
2023-01-15T11:54:13.702Z,95495.63
2023-01-15T11:56:44.087Z,95447.97
2023-01-15T11:59:14.728Z,95483.97
2023-01-15T12:01:54.786Z,95447.97
2023-01-15T12:04:32.071Z,95497.97
2023-01-15T12:07:03.268Z,95502.06
2023-01-15T12:09:58.759Z,95478.88
2023-01-15T12:12:37.042Z,95492.31
2023-01-15T12:15:24.805Z,95492.88
2023-01-15T12:18:26.896Z,95491.78
2023-01-15T12:21:03.965Z,95484.91
2023-01-15T12:24:11.939Z,95484.53
2023-01-15T12:26:52.648Z,95467.50
2023-01-15T12:29:24.024Z,95447.72
2023-01-15T12:31:56.557Z,95470.66
2023-01-15T12:34:27.986Z,95472.56
2023-01-15T12:37:00.036Z,95474.91
2023-01-15T12:39:34.961Z,95474.72
2023-01-15T12:42:25.115Z,95473.41
2023-01-15T12:45:04.711Z,95467.50
2023-01-15T12:47:40.228Z,95464.03
2023-01-15T12:50:23.949Z,95461.81
2023-01-15T12:52:56.307Z,95459.22
2023-01-15T12:55:29.507Z,95452.41
2023-01-15T12:58:01.765Z,95447.91
2023-01-15T13:00:34.004Z,95438.53
2023-01-15T13:03:15.837Z,95438.69
2023-01-15T13:05:48.457Z,95442.44
2023-01-15T13:08:22.862Z,95436.47
2023-01-15T13:10:53.118Z,95442.94
2023-01-15T13:13:24.694Z,95445.09
2023-01-15T13:16:13.971Z,95439.72
2023-01-15T13:18:55.389Z,95432.81
2023-01-15T13:21:25.859Z,95435.78
2023-01-15T13:24:14.220Z,95439.00
2023-01-15T13:27:25.524Z,95419.22
2023-01-15T13:30:14.815Z,95419.88
2023-01-15T13:32:46.563Z,95424.47
2023-01-15T13:35:29.934Z,95407.84
2023-01-15T13:38:01.073Z,95413.22
2023-01-15T13:40:32.972Z,95407.06
2023-01-15T13:43:04.068Z,95406.88
2023-01-15T13:45:38.133Z,95413.72
2023-01-15T13:48:09.916Z,95410.84
2023-01-15T13:50:42.686Z,95324.63
2023-01-15T13:53:30.292Z,95401.91
2023-01-15T13:56:02.607Z,95404.34
2023-01-15T13:58:33.264Z,95422.66
2023-01-15T14:01:09.019Z,95409.41
2023-01-15T14:03:39.297Z,95405.44
2023-01-15T14:06:09.883Z,95409.34
2023-01-15T14:08:41.141Z,95406.69
2023-01-15T14:11:36.686Z,95254.09
2023-01-15T14:14:33.366Z,95396.75
2023-01-15T14:17:15.640Z,95266.47
2023-01-15T14:20:11.627Z,95387.47
2023-01-15T14:22:55.912Z,95373.72
2023-01-15T14:25:46.352Z,95412.63
2023-01-15T14:28:28.624Z,95392.66
2023-01-15T14:31:35.206Z,95403.41
2023-01-15T14:34:14.667Z,95400.97
2023-01-15T14:36:51.006Z,95363.41
2023-01-15T14:39:48.841Z,95407.84
2023-01-15T14:42:42.869Z,95409.16
2023-01-15T14:45:22.227Z,95380.06
2023-01-15T14:47:53.664Z,95401.56
2023-01-15T14:50:46.441Z,95346.84
2023-01-15T14:53:43.597Z,95395.59
2023-01-15T14:56:20.791Z,95378.41
2023-01-15T14:58:59.288Z,95404.03
2023-01-15T15:01:43.030Z,95388.91
2023-01-15T15:04:23.519Z,95400.22
2023-01-15T15:06:56.214Z,95399.84
2023-01-15T15:09:32.463Z,95402.44
2023-01-15T15:12:21.524Z,95344.28
2023-01-15T15:14:59.411Z,95403.34
2023-01-15T15:17:33.710Z,95408.63
2023-01-15T15:20:18.989Z,95411.69
2023-01-15T15:22:49.477Z,95408.09
2023-01-15T15:25:24.447Z,95400.78
2023-01-15T15:28:03.048Z,95397.50
2023-01-15T15:30:35.869Z,95402.94
2023-01-15T15:33:06.631Z,95398.38
2023-01-15T15:35:36.301Z,95401.63
2023-01-15T15:38:09.237Z,95410.84
2023-01-15T15:40:38.627Z,95409.34
2023-01-15T15:43:32.706Z,95416.94
2023-01-15T15:46:18.183Z,95418.63
2023-01-15T15:48:53.352Z,95412.38
2023-01-15T15:51:34.138Z,95413.53
2023-01-15T15:54:11.597Z,95346.50
2023-01-15T15:56:42.656Z,95416.09
2023-01-15T15:59:30.737Z,95415.88
2023-01-15T16:02:01.949Z,95413.88
2023-01-15T16:04:30.484Z,95402.78
2023-01-15T16:06:59.884Z,95389.22
2023-01-15T16:09:28.021Z,95404.28
2023-01-15T16:12:07.800Z,95356.28
2023-01-15T16:14:38.499Z,95419.59
2023-01-15T16:17:10.198Z,95414.53
2023-01-15T16:19:41.054Z,95417.09
2023-01-15T16:22:16.650Z,95377.75
2023-01-15T16:24:56.575Z,95393.41
2023-01-15T16:27:31.054Z,95411.94
2023-01-15T16:29:59.456Z,95399.91
2023-01-15T16:32:31.748Z,95407.25
2023-01-15T16:35:07.129Z,95420.03
2023-01-15T16:37:36.980Z,95416.06
2023-01-15T16:40:07.312Z,95423.84
2023-01-15T16:42:37.808Z,95419.88
2023-01-15T16:45:13.645Z,95425.00
2023-01-15T16:47:42.746Z,95423.69
2023-01-15T16:50:31.556Z,95424.03
2023-01-15T16:53:02.552Z,95423.03
2023-01-15T16:55:57.627Z,95421.50
2023-01-15T16:58:44.003Z,95417.19
2023-01-15T17:01:35.279Z,95430.25
2023-01-15T17:04:04.774Z,95401.16
2023-01-15T17:06:33.558Z,95428.78
2023-01-15T17:09:03.047Z,95431.06
2023-01-15T17:11:33.555Z,95435.81
2023-01-15T17:14:20.392Z,95420.16
2023-01-15T17:17:04.683Z,95411.41
2023-01-15T17:19:37.357Z,95430.13
2023-01-15T17:25:31.068Z,95441.91
2023-01-15T17:28:00.440Z,95424.31
2023-01-15T17:30:31.210Z,95419.59
2023-01-15T17:32:59.681Z,95421.94
2023-01-15T17:35:49.148Z,95432.41
2023-01-15T17:38:19.122Z,95432.41
2023-01-15T17:40:48.705Z,95378.38
2023-01-15T17:43:18.801Z,95423.66
2023-01-15T17:45:46.931Z,95410.41
2023-01-15T17:48:15.053Z,95424.75
2023-01-15T17:50:43.402Z,95425.03
2023-01-15T17:53:11.347Z,95362.56
2023-01-15T17:55:57.198Z,95348.78
2023-01-15T17:58:44.094Z,95383.56
2023-01-15T18:01:37.795Z,95417.72
2023-01-15T18:04:23.971Z,95417.75
2023-01-15T18:06:54.849Z,95407.88
2023-01-15T18:09:24.952Z,95407.88
2023-01-15T18:11:55.625Z,95408.16
2023-01-15T18:14:26.650Z,95386.72
2023-01-15T18:16:54.874Z,95409.53
2023-01-15T18:19:23.302Z,95411.97
2023-01-15T18:21:52.798Z,95401.56
2023-01-15T18:24:22.791Z,95412.50
2023-01-15T18:26:52.718Z,95408.25
2023-01-15T18:29:21.778Z,95363.81
2023-01-15T18:31:51.229Z,95407.69
2023-01-15T18:34:19.272Z,95418.34
2023-01-15T18:36:47.968Z,95419.97
2023-01-15T18:39:16.090Z,95402.19
2023-01-15T18:42:01.653Z,95415.22
2023-01-15T18:44:47.244Z,95408.59
2023-01-15T18:47:18.306Z,95406.22
2023-01-15T18:49:47.740Z,95404.91
2023-01-15T18:52:34.933Z,95403.03
2023-01-15T18:55:04.108Z,95401.97
2023-01-15T18:57:34.343Z,95398.81
2023-01-15T19:00:02.356Z,95393.47
2023-01-15T19:02:31.860Z,95401.97
2023-01-15T19:05:00.776Z,95385.28
2023-01-15T19:07:28.855Z,95401.97
2023-01-15T19:09:56.800Z,95399.91
2023-01-15T19:12:24.662Z,95397.50
2023-01-15T19:15:10.014Z,95385.00
2023-01-15T19:18:11.806Z,95393.25
2023-01-15T19:20:40.189Z,95390.31
2023-01-15T19:23:09.321Z,95394.31
2023-01-15T19:25:39.065Z,95395.63
2023-01-15T19:28:07.922Z,95347.19
2023-01-15T19:30:39.701Z,95391.06
2023-01-15T19:33:12.402Z,95355.13
2023-01-15T19:35:43.121Z,95385.50
2023-01-15T19:38:11.805Z,95398.59
2023-01-15T19:40:42.116Z,95384.25
2023-01-15T19:43:28.679Z,95393.69
2023-01-15T19:46:14.795Z,95398.72
2023-01-15T19:49:02.168Z,95391.25
2023-01-15T19:52:01.306Z,95391.53
2023-01-15T19:54:43.188Z,95392.84
2023-01-15T19:57:11.465Z,95353.13
2023-01-15T19:59:39.502Z,95386.41
2023-01-15T20:02:07.694Z,95389.06
2023-01-15T20:04:37.052Z,95389.41
2023-01-15T20:07:04.946Z,95382.44
2023-01-15T20:09:32.982Z,95379.50
2023-01-15T20:12:18.296Z,95393.88
2023-01-15T20:14:47.397Z,95393.63
2023-01-15T20:17:15.527Z,95387.31
2023-01-15T20:19:44.855Z,95390.19
2023-01-15T20:22:12.849Z,95392.28
2023-01-15T20:24:44.047Z,95382.75
2023-01-15T20:27:13.051Z,95379.53
2023-01-15T20:29:41.364Z,95390.94
2023-01-15T20:32:09.411Z,95388.03
2023-01-15T20:34:38.644Z,95370.50
2023-01-15T20:37:08.831Z,95361.50
2023-01-15T20:39:36.935Z,95323.38
2023-01-15T20:42:37.211Z,95380.91
2023-01-15T20:45:11.153Z,95328.66
2023-01-15T20:47:57.672Z,95379.00
2023-01-15T20:50:27.120Z,95377.16
2023-01-15T20:52:58.798Z,95383.81
2023-01-15T20:55:45.572Z,95376.41
2023-01-15T20:58:17.774Z,95233.63
2023-01-15T21:00:45.823Z,95373.75
2023-01-15T21:03:13.914Z,95377.00
2023-01-15T21:05:45.020Z,95375.19
2023-01-15T21:08:14.458Z,95378.34
2023-01-15T21:10:42.627Z,95371.38
2023-01-15T21:13:12.275Z,95370.63
2023-01-15T21:15:40.516Z,95318.72
2023-01-15T21:18:09.801Z,95375.34
2023-01-15T21:20:40.018Z,95368.47
2023-01-15T21:23:07.904Z,95360.22
2023-01-15T21:25:37.367Z,95320.31
2023-01-15T21:28:05.572Z,95350.75
2023-01-15T21:30:33.526Z,95348.94
2023-01-15T21:33:02.166Z,95348.47
2023-01-15T21:35:30.102Z,95352.94
2023-01-15T21:37:58.042Z,95353.25
2023-01-15T21:40:26.148Z,95347.97
2023-01-15T21:43:13.160Z,95355.44
2023-01-15T21:45:41.275Z,95351.19
2023-01-15T21:48:10.353Z,95358.91
2023-01-15T21:50:40.811Z,95352.31
2023-01-15T21:53:11.117Z,95344.88
2023-01-15T21:55:39.127Z,95276.34
2023-01-15T21:58:09.022Z,95343.31
2023-01-15T22:00:37.325Z,95330.31
2023-01-15T22:03:05.519Z,95325.28
2023-01-15T22:05:34.422Z,95285.09
2023-01-15T22:08:04.872Z,95339.44
2023-01-15T22:10:32.984Z,95336.56
2023-01-15T22:13:01.194Z,95325.75
2023-01-15T22:15:30.506Z,95329.41
2023-01-15T22:17:59.613Z,95332.78
2023-01-15T22:20:27.663Z,95314.91
2023-01-15T22:22:55.565Z,95320.97
2023-01-15T22:25:23.646Z,95315.16
2023-01-15T22:27:51.544Z,95318.34
2023-01-15T22:30:19.801Z,95320.47
2023-01-15T22:32:51.397Z,95318.34
2023-01-15T22:35:19.663Z,95314.56
2023-01-15T22:37:47.678Z,95307.69
2023-01-15T22:40:15.678Z,95305.56
2023-01-15T22:42:43.922Z,95308.53
2023-01-15T22:45:12.439Z,95301.09
2023-01-15T22:47:40.420Z,95308.09
2023-01-15T22:50:12.120Z,95296.50
2023-01-15T22:52:41.087Z,95249.25
2023-01-15T22:55:10.385Z,95296.50
2023-01-15T22:57:38.517Z,95301.03
2023-01-15T23:00:08.414Z,95302.03
2023-01-15T23:02:53.568Z,95308.25
2023-01-15T23:05:24.170Z,95295.50
2023-01-15T23:07:52.486Z,95275.63
2023-01-15T23:10:20.501Z,95286.91
2023-01-15T23:12:48.492Z,95277.72
2023-01-15T23:15:16.472Z,95290.91
2023-01-15T23:17:44.985Z,95287.78
2023-01-15T23:20:14.131Z,95287.81
2023-01-15T23:22:43.497Z,95281.91
2023-01-15T23:25:11.451Z,95279.56
2023-01-15T23:27:39.635Z,95285.66
2023-01-15T23:30:08.925Z,95234.75
2023-01-15T23:32:39.580Z,95274.72
2023-01-15T23:35:08.493Z,95266.44
2023-01-15T23:37:36.424Z,95271.75
2023-01-15T23:40:06.705Z,95255.38
2023-01-15T23:42:51.995Z,95279.75
2023-01-15T23:45:37.026Z,95269.41
2023-01-15T23:48:05.904Z,95273.44
2023-01-15T23:50:33.893Z,95277.22
2023-01-15T23:53:01.893Z,95265.56
2023-01-15T23:55:31.292Z,95275.91
2023-01-15T23:57:59.201Z,95272.75
